sensor_id;sensor_type;location;lat;lon;timestamp;P1;durP1;ratioP1;P2;durP2;ratioP2
76256;SDS011;65074;50.436;8.672;2022-11-23T00:01:46;12.95;;;4.90;;
76256;SDS011;65074;50.436;8.672;2022-11-23T00:04:12;6.88;;;4.13;;
76256;SDS011;65074;50.436;8.672;2022-11-23T00:06:39;6.38;;;4.25;;
76256;SDS011;65074;50.436;8.672;2022-11-23T00:09:05;7.10;;;4.15;;
76256;SDS011;65074;50.436;8.672;2022-11-23T00:11:32;5.85;;;4.18;;
76256;SDS011;65074;50.436;8.672;2022-11-23T00:13:59;8.05;;;4.30;;
76256;SDS011;65074;50.436;8.672;2022-11-23T00:16:25;9.65;;;4.28;;
76256;SDS011;65074;50.436;8.672;2022-11-23T00:18:53;7.05;;;4.38;;
76256;SDS011;65074;50.436;8.672;2022-11-23T00:21:20;7.00;;;3.78;;
76256;SDS011;65074;50.436;8.672;2022-11-23T00:23:46;5.32;;;3.85;;
76256;SDS011;65074;50.436;8.672;2022-11-23T00:26:13;5.85;;;3.92;;
76256;SDS011;65074;50.436;8.672;2022-11-23T00:28:39;5.72;;;3.53;;
76256;SDS011;65074;50.436;8.672;2022-11-23T00:31:07;6.43;;;3.53;;
76256;SDS011;65074;50.436;8.672;2022-11-23T00:33:35;11.82;;;4.40;;
76256;SDS011;65074;50.436;8.672;2022-11-23T00:36:01;6.70;;;3.88;;
76256;SDS011;65074;50.436;8.672;2022-11-23T00:38:31;9.40;;;4.32;;
76256;SDS011;65074;50.436;8.672;2022-11-23T00:41:02;8.23;;;3.90;;
76256;SDS011;65074;50.436;8.672;2022-11-23T00:43:29;7.80;;;3.90;;
76256;SDS011;65074;50.436;8.672;2022-11-23T00:46:02;7.00;;;4.07;;
76256;SDS011;65074;50.436;8.672;2022-11-23T00:48:30;11.10;;;3.75;;
76256;SDS011;65074;50.436;8.672;2022-11-23T00:50:58;7.07;;;3.53;;
76256;SDS011;65074;50.436;8.672;2022-11-23T00:53:25;8.50;;;3.60;;
76256;SDS011;65074;50.436;8.672;2022-11-23T00:55:51;6.18;;;3.40;;
76256;SDS011;65074;50.436;8.672;2022-11-23T00:58:17;7.15;;;3.28;;
76256;SDS011;65074;50.436;8.672;2022-11-23T01:00:43;9.00;;;3.58;;
76256;SDS011;65074;50.436;8.672;2022-11-23T01:03:09;7.43;;;3.30;;
76256;SDS011;65074;50.436;8.672;2022-11-23T01:05:35;7.10;;;3.50;;
76256;SDS011;65074;50.436;8.672;2022-11-23T01:08:02;6.57;;;3.15;;
76256;SDS011;65074;50.436;8.672;2022-11-23T01:10:30;6.68;;;3.00;;
76256;SDS011;65074;50.436;8.672;2022-11-23T01:12:56;4.50;;;2.90;;
76256;SDS011;65074;50.436;8.672;2022-11-23T01:15:22;5.93;;;2.92;;
76256;SDS011;65074;50.436;8.672;2022-11-23T01:17:50;4.80;;;2.50;;
76256;SDS011;65074;50.436;8.672;2022-11-23T01:20:16;5.15;;;2.58;;
76256;SDS011;65074;50.436;8.672;2022-11-23T01:22:41;3.85;;;2.33;;
76256;SDS011;65074;50.436;8.672;2022-11-23T01:25:07;6.60;;;2.90;;
76256;SDS011;65074;50.436;8.672;2022-11-23T01:27:34;4.65;;;2.30;;
76256;SDS011;65074;50.436;8.672;2022-11-23T01:30:00;4.20;;;2.60;;
76256;SDS011;65074;50.436;8.672;2022-11-23T01:32:25;7.47;;;2.30;;
76256;SDS011;65074;50.436;8.672;2022-11-23T01:34:51;5.10;;;2.33;;
76256;SDS011;65074;50.436;8.672;2022-11-23T01:37:16;5.88;;;2.60;;
76256;SDS011;65074;50.436;8.672;2022-11-23T01:39:43;6.68;;;2.42;;
76256;SDS011;65074;50.436;8.672;2022-11-23T01:42:08;6.57;;;2.15;;
76256;SDS011;65074;50.436;8.672;2022-11-23T01:44:35;3.40;;;2.15;;
76256;SDS011;65074;50.436;8.672;2022-11-23T01:47:03;4.18;;;1.95;;
76256;SDS011;65074;50.436;8.672;2022-11-23T01:49:35;6.93;;;2.38;;
76256;SDS011;65074;50.436;8.672;2022-11-23T01:52:08;5.20;;;2.63;;
76256;SDS011;65074;50.436;8.672;2022-11-23T01:54:45;7.53;;;2.28;;
76256;SDS011;65074;50.436;8.672;2022-11-23T01:57:35;6.32;;;1.90;;
76256;SDS011;65074;50.436;8.672;2022-11-23T02:00:05;4.22;;;2.08;;
76256;SDS011;65074;50.436;8.672;2022-11-23T02:02:38;4.13;;;1.88;;
76256;SDS011;65074;50.436;8.672;2022-11-23T02:05:09;4.95;;;1.73;;
76256;SDS011;65074;50.436;8.672;2022-11-23T02:07:37;2.75;;;1.70;;
76256;SDS011;65074;50.436;8.672;2022-11-23T02:10:03;5.47;;;2.28;;
76256;SDS011;65074;50.436;8.672;2022-11-23T02:12:29;5.95;;;2.03;;
76256;SDS011;65074;50.436;8.672;2022-11-23T02:14:54;3.90;;;2.00;;
76256;SDS011;65074;50.436;8.672;2022-11-23T02:17:20;4.40;;;1.60;;
76256;SDS011;65074;50.436;8.672;2022-11-23T02:23:00;3.90;;;1.77;;
76256;SDS011;65074;50.436;8.672;2022-11-23T02:28:10;5.20;;;2.05;;
76256;SDS011;65074;50.436;8.672;2022-11-23T02:30:38;5.55;;;2.13;;
76256;SDS011;65074;50.436;8.672;2022-11-23T02:33:05;5.35;;;2.00;;
76256;SDS011;65074;50.436;8.672;2022-11-23T02:35:31;4.78;;;1.50;;
76256;SDS011;65074;50.436;8.672;2022-11-23T02:37:57;3.72;;;2.08;;
76256;SDS011;65074;50.436;8.672;2022-11-23T02:40:32;5.50;;;1.88;;
76256;SDS011;65074;50.436;8.672;2022-11-23T02:42:59;5.45;;;2.50;;
76256;SDS011;65074;50.436;8.672;2022-11-23T02:48:00;6.82;;;2.20;;
76256;SDS011;65074;50.436;8.672;2022-11-23T02:50:26;7.28;;;2.28;;
76256;SDS011;65074;50.436;8.672;2022-11-23T02:52:51;4.88;;;2.00;;
76256;SDS011;65074;50.436;8.672;2022-11-23T02:55:17;4.60;;;2.17;;
76256;SDS011;65074;50.436;8.672;2022-11-23T02:57:42;5.50;;;2.30;;
76256;SDS011;65074;50.436;8.672;2022-11-23T03:00:09;3.38;;;2.00;;
76256;SDS011;65074;50.436;8.672;2022-11-23T03:02:36;6.05;;;2.80;;
76256;SDS011;65074;50.436;8.672;2022-11-23T03:05:01;5.88;;;2.17;;
76256;SDS011;65074;50.436;8.672;2022-11-23T03:07:27;7.78;;;2.40;;
76256;SDS011;65074;50.436;8.672;2022-11-23T03:09:52;4.80;;;2.35;;
76256;SDS011;65074;50.436;8.672;2022-11-23T03:12:18;5.35;;;2.70;;
76256;SDS011;65074;50.436;8.672;2022-11-23T03:14:44;4.45;;;2.85;;
76256;SDS011;65074;50.436;8.672;2022-11-23T03:17:09;6.43;;;2.10;;
76256;SDS011;65074;50.436;8.672;2022-11-23T03:19:39;4.88;;;2.55;;
76256;SDS011;65074;50.436;8.672;2022-11-23T03:22:05;4.82;;;2.47;;
76256;SDS011;65074;50.436;8.672;2022-11-23T03:24:30;7.18;;;2.58;;
76256;SDS011;65074;50.436;8.672;2022-11-23T03:26:56;3.45;;;2.47;;
76256;SDS011;65074;50.436;8.672;2022-11-23T03:29:22;7.82;;;2.05;;
76256;SDS011;65074;50.436;8.672;2022-11-23T03:31:52;4.63;;;2.10;;
76256;SDS011;65074;50.436;8.672;2022-11-23T03:34:18;5.07;;;2.45;;
76256;SDS011;65074;50.436;8.672;2022-11-23T03:36:44;8.00;;;2.60;;
76256;SDS011;65074;50.436;8.672;2022-11-23T03:39:09;5.70;;;3.03;;
76256;SDS011;65074;50.436;8.672;2022-11-23T03:42:04;2.83;;;1.80;;
76256;SDS011;65074;50.436;8.672;2022-11-23T03:44:32;6.22;;;2.35;;
76256;SDS011;65074;50.436;8.672;2022-11-23T03:46:58;3.72;;;2.03;;
76256;SDS011;65074;50.436;8.672;2022-11-23T03:49:25;5.43;;;2.42;;
76256;SDS011;65074;50.436;8.672;2022-11-23T03:51:51;5.30;;;3.15;;
76256;SDS011;65074;50.436;8.672;2022-11-23T03:54:16;6.90;;;2.00;;
76256;SDS011;65074;50.436;8.672;2022-11-23T03:56:42;4.32;;;2.47;;
76256;SDS011;65074;50.436;8.672;2022-11-23T03:59:08;7.72;;;2.40;;
76256;SDS011;65074;50.436;8.672;2022-11-23T04:01:33;4.80;;;2.47;;
76256;SDS011;65074;50.436;8.672;2022-11-23T04:04:03;8.65;;;3.17;;
76256;SDS011;65074;50.436;8.672;2022-11-23T04:06:36;5.40;;;1.63;;
76256;SDS011;65074;50.436;8.672;2022-11-23T04:09:15;3.17;;;1.85;;
76256;SDS011;65074;50.436;8.672;2022-11-23T04:12:00;11.02;;;3.65;;
76256;SDS011;65074;50.436;8.672;2022-11-23T04:14:26;6.75;;;2.80;;
76256;SDS011;65074;50.436;8.672;2022-11-23T04:16:51;5.50;;;2.50;;
76256;SDS011;65074;50.436;8.672;2022-11-23T04:19:16;8.38;;;2.55;;
76256;SDS011;65074;50.436;8.672;2022-11-23T04:21:42;8.20;;;3.28;;
76256;SDS011;65074;50.436;8.672;2022-11-23T04:24:08;5.35;;;2.15;;
76256;SDS011;65074;50.436;8.672;2022-11-23T04:26:34;4.60;;;2.10;;
76256;SDS011;65074;50.436;8.672;2022-11-23T04:29:00;3.28;;;2.15;;
76256;SDS011;65074;50.436;8.672;2022-11-23T04:31:26;4.85;;;2.17;;
76256;SDS011;65074;50.436;8.672;2022-11-23T04:34:02;7.38;;;2.30;;
76256;SDS011;65074;50.436;8.672;2022-11-23T04:36:28;4.95;;;2.55;;
76256;SDS011;65074;50.436;8.672;2022-11-23T04:38:53;8.85;;;2.53;;
76256;SDS011;65074;50.436;8.672;2022-11-23T04:41:27;4.68;;;1.63;;
76256;SDS011;65074;50.436;8.672;2022-11-23T04:43:52;7.10;;;2.75;;
76256;SDS011;65074;50.436;8.672;2022-11-23T04:46:18;2.50;;;1.58;;
76256;SDS011;65074;50.436;8.672;2022-11-23T04:48:44;3.15;;;1.80;;
76256;SDS011;65074;50.436;8.672;2022-11-23T04:51:10;5.28;;;2.38;;
76256;SDS011;65074;50.436;8.672;2022-11-23T04:53:37;3.47;;;1.85;;
76256;SDS011;65074;50.436;8.672;2022-11-23T04:56:03;7.97;;;2.00;;
76256;SDS011;65074;50.436;8.672;2022-11-23T04:58:33;4.82;;;2.17;;
76256;SDS011;65074;50.436;8.672;2022-11-23T05:01:00;6.05;;;2.35;;
76256;SDS011;65074;50.436;8.672;2022-11-23T05:03:27;5.47;;;2.20;;
76256;SDS011;65074;50.436;8.672;2022-11-23T05:05:53;4.30;;;2.15;;
76256;SDS011;65074;50.436;8.672;2022-11-23T05:08:18;4.28;;;2.38;;
76256;SDS011;65074;50.436;8.672;2022-11-23T05:10:49;4.57;;;2.60;;
76256;SDS011;65074;50.436;8.672;2022-11-23T05:13:15;5.75;;;2.45;;
76256;SDS011;65074;50.436;8.672;2022-11-23T05:15:41;7.63;;;2.45;;
76256;SDS011;65074;50.436;8.672;2022-11-23T05:18:07;5.82;;;2.35;;
76256;SDS011;65074;50.436;8.672;2022-11-23T05:20:34;5.72;;;2.67;;
76256;SDS011;65074;50.436;8.672;2022-11-23T05:23:00;5.82;;;2.30;;
76256;SDS011;65074;50.436;8.672;2022-11-23T05:25:27;6.78;;;2.40;;
76256;SDS011;65074;50.436;8.672;2022-11-23T05:27:59;7.20;;;2.67;;
76256;SDS011;65074;50.436;8.672;2022-11-23T05:30:26;5.20;;;2.13;;
76256;SDS011;65074;50.436;8.672;2022-11-23T05:32:51;4.32;;;2.58;;
76256;SDS011;65074;50.436;8.672;2022-11-23T05:35:18;7.68;;;2.38;;
76256;SDS011;65074;50.436;8.672;2022-11-23T05:37:44;7.35;;;3.13;;
76256;SDS011;65074;50.436;8.672;2022-11-23T05:40:10;5.82;;;2.50;;
76256;SDS011;65074;50.436;8.672;2022-11-23T05:42:36;5.82;;;2.78;;
76256;SDS011;65074;50.436;8.672;2022-11-23T05:45:17;7.55;;;4.18;;
76256;SDS011;65074;50.436;8.672;2022-11-23T05:47:51;12.85;;;5.35;;
76256;SDS011;65074;50.436;8.672;2022-11-23T05:50:32;8.88;;;3.65;;
76256;SDS011;65074;50.436;8.672;2022-11-23T05:53:16;7.45;;;4.68;;
76256;SDS011;65074;50.436;8.672;2022-11-23T05:55:44;7.30;;;4.88;;
76256;SDS011;65074;50.436;8.672;2022-11-23T05:58:10;12.13;;;5.60;;
76256;SDS011;65074;50.436;8.672;2022-11-23T06:00:35;10.40;;;4.88;;
76256;SDS011;65074;50.436;8.672;2022-11-23T06:03:03;13.80;;;5.28;;
76256;SDS011;65074;50.436;8.672;2022-11-23T06:05:33;10.23;;;4.85;;
76256;SDS011;65074;50.436;8.672;2022-11-23T06:07:58;13.00;;;7.75;;
76256;SDS011;65074;50.436;8.672;2022-11-23T06:10:25;6.47;;;3.67;;
76256;SDS011;65074;50.436;8.672;2022-11-23T06:12:51;11.65;;;4.88;;
76256;SDS011;65074;50.436;8.672;2022-11-23T06:15:18;11.30;;;4.28;;
76256;SDS011;65074;50.436;8.672;2022-11-23T06:17:45;9.68;;;4.00;;
76256;SDS011;65074;50.436;8.672;2022-11-23T06:20:14;8.85;;;4.50;;
76256;SDS011;65074;50.436;8.672;2022-11-23T06:22:43;11.30;;;5.05;;
76256;SDS011;65074;50.436;8.672;2022-11-23T06:25:15;8.35;;;4.15;;
76256;SDS011;65074;50.436;8.672;2022-11-23T06:27:57;11.50;;;5.32;;
76256;SDS011;65074;50.436;8.672;2022-11-23T06:30:28;9.18;;;3.95;;
76256;SDS011;65074;50.436;8.672;2022-11-23T06:33:03;13.77;;;5.70;;
76256;SDS011;65074;50.436;8.672;2022-11-23T06:35:29;14.07;;;5.50;;
76256;SDS011;65074;50.436;8.672;2022-11-23T06:37:55;10.00;;;4.75;;
76256;SDS011;65074;50.436;8.672;2022-11-23T06:40:21;7.38;;;4.22;;
76256;SDS011;65074;50.436;8.672;2022-11-23T06:42:48;11.98;;;4.05;;
76256;SDS011;65074;50.436;8.672;2022-11-23T06:45:22;12.60;;;4.72;;
76256;SDS011;65074;50.436;8.672;2022-11-23T06:47:52;6.88;;;4.20;;
76256;SDS011;65074;50.436;8.672;2022-11-23T06:50:18;10.38;;;5.45;;
76256;SDS011;65074;50.436;8.672;2022-11-23T06:52:45;8.02;;;4.10;;
76256;SDS011;65074;50.436;8.672;2022-11-23T06:55:12;8.10;;;4.00;;
76256;SDS011;65074;50.436;8.672;2022-11-23T06:57:38;10.38;;;4.57;;
76256;SDS011;65074;50.436;8.672;2022-11-23T07:00:04;6.50;;;3.63;;
76256;SDS011;65074;50.436;8.672;2022-11-23T07:02:34;7.95;;;4.03;;
76256;SDS011;65074;50.436;8.672;2022-11-23T07:05:00;8.65;;;4.15;;
76256;SDS011;65074;50.436;8.672;2022-11-23T07:07:27;9.52;;;3.97;;
76256;SDS011;65074;50.436;8.672;2022-11-23T07:10:02;8.05;;;3.70;;
76256;SDS011;65074;50.436;8.672;2022-11-23T07:12:31;5.82;;;3.42;;
76256;SDS011;65074;50.436;8.672;2022-11-23T07:14:58;5.82;;;3.75;;
76256;SDS011;65074;50.436;8.672;2022-11-23T07:17:24;5.90;;;2.60;;
76256;SDS011;65074;50.436;8.672;2022-11-23T07:19:50;7.32;;;3.90;;
76256;SDS011;65074;50.436;8.672;2022-11-23T07:22:15;6.85;;;4.00;;
76256;SDS011;65074;50.436;8.672;2022-11-23T07:24:41;8.35;;;4.13;;
76256;SDS011;65074;50.436;8.672;2022-11-23T07:27:06;9.98;;;4.38;;
76256;SDS011;65074;50.436;8.672;2022-11-23T07:29:32;7.72;;;3.83;;
76256;SDS011;65074;50.436;8.672;2022-11-23T07:31:57;9.48;;;4.07;;
76256;SDS011;65074;50.436;8.672;2022-11-23T07:34:26;7.57;;;3.88;;
76256;SDS011;65074;50.436;8.672;2022-11-23T07:36:53;8.57;;;4.85;;
76256;SDS011;65074;50.436;8.672;2022-11-23T07:39:19;8.45;;;3.97;;
76256;SDS011;65074;50.436;8.672;2022-11-23T07:41:47;5.85;;;3.60;;
76256;SDS011;65074;50.436;8.672;2022-11-23T07:44:24;7.43;;;4.13;;
76256;SDS011;65074;50.436;8.672;2022-11-23T07:46:53;11.73;;;4.18;;
76256;SDS011;65074;50.436;8.672;2022-11-23T07:49:18;8.13;;;4.30;;
76256;SDS011;65074;50.436;8.672;2022-11-23T07:51:44;10.27;;;4.03;;
76256;SDS011;65074;50.436;8.672;2022-11-23T07:54:09;10.13;;;4.47;;
76256;SDS011;65074;50.436;8.672;2022-11-23T07:56:34;9.55;;;3.88;;
76256;SDS011;65074;50.436;8.672;2022-11-23T07:59:03;8.13;;;3.80;;
76256;SDS011;65074;50.436;8.672;2022-11-23T08:01:28;7.80;;;3.95;;
76256;SDS011;65074;50.436;8.672;2022-11-23T08:03:55;8.55;;;3.58;;
76256;SDS011;65074;50.436;8.672;2022-11-23T08:06:21;5.97;;;3.92;;
76256;SDS011;65074;50.436;8.672;2022-11-23T08:08:46;10.95;;;3.78;;
76256;SDS011;65074;50.436;8.672;2022-11-23T08:11:12;8.57;;;4.80;;
76256;SDS011;65074;50.436;8.672;2022-11-23T08:13:41;9.38;;;4.68;;
76256;SDS011;65074;50.436;8.672;2022-11-23T08:16:06;8.10;;;4.00;;
76256;SDS011;65074;50.436;8.672;2022-11-23T08:18:32;7.60;;;4.90;;
76256;SDS011;65074;50.436;8.672;2022-11-23T08:20:57;10.77;;;5.50;;
76256;SDS011;65074;50.436;8.672;2022-11-23T08:23:26;8.63;;;5.22;;
76256;SDS011;65074;50.436;8.672;2022-11-23T08:25:52;13.60;;;4.55;;
76256;SDS011;65074;50.436;8.672;2022-11-23T08:28:17;10.02;;;5.28;;
76256;SDS011;65074;50.436;8.672;2022-11-23T08:30:43;12.70;;;6.13;;
76256;SDS011;65074;50.436;8.672;2022-11-23T08:33:09;11.52;;;5.80;;
76256;SDS011;65074;50.436;8.672;2022-11-23T08:35:37;14.25;;;5.88;;
76256;SDS011;65074;50.436;8.672;2022-11-23T08:38:03;13.25;;;5.97;;
76256;SDS011;65074;50.436;8.672;2022-11-23T08:40:30;7.50;;;4.25;;
76256;SDS011;65074;50.436;8.672;2022-11-23T08:42:55;8.65;;;4.93;;
76256;SDS011;65074;50.436;8.672;2022-11-23T08:45:24;10.05;;;5.20;;
76256;SDS011;65074;50.436;8.672;2022-11-23T08:47:49;7.57;;;4.40;;
76256;SDS011;65074;50.436;8.672;2022-11-23T08:50:15;10.07;;;4.93;;
76256;SDS011;65074;50.436;8.672;2022-11-23T08:52:41;6.80;;;4.10;;
76256;SDS011;65074;50.436;8.672;2022-11-23T08:55:07;12.77;;;4.90;;
76256;SDS011;65074;50.436;8.672;2022-11-23T08:57:33;7.95;;;3.92;;
76256;SDS011;65074;50.436;8.672;2022-11-23T08:59:58;7.72;;;4.97;;
76256;SDS011;65074;50.436;8.672;2022-11-23T09:02:24;8.73;;;4.30;;
76256;SDS011;65074;50.436;8.672;2022-11-23T09:04:49;9.32;;;4.50;;
76256;SDS011;65074;50.436;8.672;2022-11-23T09:07:14;9.75;;;4.82;;
76256;SDS011;65074;50.436;8.672;2022-11-23T09:09:40;11.30;;;4.85;;
76256;SDS011;65074;50.436;8.672;2022-11-23T09:12:05;10.93;;;5.60;;
76256;SDS011;65074;50.436;8.672;2022-11-23T09:14:31;9.93;;;6.05;;
76256;SDS011;65074;50.436;8.672;2022-11-23T09:16:59;10.82;;;4.85;;
76256;SDS011;65074;50.436;8.672;2022-11-23T09:19:25;9.20;;;5.50;;
76256;SDS011;65074;50.436;8.672;2022-11-23T09:21:51;9.82;;;5.63;;
76256;SDS011;65074;50.436;8.672;2022-11-23T09:24:16;13.27;;;5.75;;
76256;SDS011;65074;50.436;8.672;2022-11-23T09:26:42;8.80;;;4.53;;
76256;SDS011;65074;50.436;8.672;2022-11-23T09:29:07;13.60;;;6.15;;
76256;SDS011;65074;50.436;8.672;2022-11-23T09:31:34;11.77;;;5.22;;
76256;SDS011;65074;50.436;8.672;2022-11-23T09:33:59;10.52;;;5.30;;
76256;SDS011;65074;50.436;8.672;2022-11-23T09:36:25;11.20;;;5.57;;
76256;SDS011;65074;50.436;8.672;2022-11-23T09:38:50;12.52;;;4.75;;
76256;SDS011;65074;50.436;8.672;2022-11-23T09:41:28;13.60;;;5.00;;
76256;SDS011;65074;50.436;8.672;2022-11-23T09:52:18;8.40;;;4.90;;
76256;SDS011;65074;50.436;8.672;2022-11-23T09:54:46;8.82;;;4.30;;
76256;SDS011;65074;50.436;8.672;2022-11-23T09:57:15;6.75;;;3.95;;
76256;SDS011;65074;50.436;8.672;2022-11-23T09:59:49;7.10;;;4.30;;
76256;SDS011;65074;50.436;8.672;2022-11-23T10:02:22;7.32;;;3.95;;
76256;SDS011;65074;50.436;8.672;2022-11-23T10:04:52;7.95;;;3.50;;
76256;SDS011;65074;50.436;8.672;2022-11-23T10:12:53;5.82;;;2.95;;
76256;SDS011;65074;50.436;8.672;2022-11-23T10:15:32;5.22;;;2.33;;
76256;SDS011;65074;50.436;8.672;2022-11-23T10:18:08;5.03;;;2.92;;
76256;SDS011;65074;50.436;8.672;2022-11-23T10:26:13;3.88;;;2.17;;
76256;SDS011;65074;50.436;8.672;2022-11-23T10:28:41;7.47;;;2.92;;
76256;SDS011;65074;50.436;8.672;2022-11-23T10:33:54;4.63;;;2.25;;
76256;SDS011;65074;50.436;8.672;2022-11-23T10:36:24;5.60;;;1.85;;
76256;SDS011;65074;50.436;8.672;2022-11-23T10:38:52;7.88;;;2.55;;
76256;SDS011;65074;50.436;8.672;2022-11-23T10:41:22;4.63;;;2.40;;
76256;SDS011;65074;50.436;8.672;2022-11-23T10:46:29;3.60;;;1.77;;
76256;SDS011;65074;50.436;8.672;2022-11-23T10:48:55;7.38;;;2.00;;
76256;SDS011;65074;50.436;8.672;2022-11-23T10:51:34;3.72;;;1.60;;
76256;SDS011;65074;50.436;8.672;2022-11-23T10:54:15;2.53;;;1.75;;
76256;SDS011;65074;50.436;8.672;2022-11-23T10:56:45;4.15;;;1.45;;
76256;SDS011;65074;50.436;8.672;2022-11-23T10:59:25;6.82;;;1.55;;
76256;SDS011;65074;50.436;8.672;2022-11-23T11:01:59;1.63;;;1.10;;
76256;SDS011;65074;50.436;8.672;2022-11-23T11:04:25;3.35;;;1.48;;
76256;SDS011;65074;50.436;8.672;2022-11-23T11:06:51;4.78;;;1.70;;
76256;SDS011;65074;50.436;8.672;2022-11-23T11:09:17;6.07;;;2.15;;
76256;SDS011;65074;50.436;8.672;2022-11-23T11:11:45;5.95;;;1.75;;
76256;SDS011;65074;50.436;8.672;2022-11-23T11:14:17;4.82;;;1.77;;
76256;SDS011;65074;50.436;8.672;2022-11-23T11:16:52;5.53;;;1.80;;
76256;SDS011;65074;50.436;8.672;2022-11-23T11:21:58;4.00;;;1.38;;
76256;SDS011;65074;50.436;8.672;2022-11-23T11:24:31;3.25;;;1.80;;
76256;SDS011;65074;50.436;8.672;2022-11-23T11:27:02;4.47;;;1.98;;
76256;SDS011;65074;50.436;8.672;2022-11-23T11:29:54;6.60;;;1.85;;
76256;SDS011;65074;50.436;8.672;2022-11-23T11:37:44;3.08;;;1.10;;
76256;SDS011;65074;50.436;8.672;2022-11-23T11:40:18;3.40;;;1.45;;
76256;SDS011;65074;50.436;8.672;2022-11-23T11:42:51;6.28;;;1.38;;
76256;SDS011;65074;50.436;8.672;2022-11-23T11:45:24;2.58;;;1.58;;
76256;SDS011;65074;50.436;8.672;2022-11-23T11:48:06;6.35;;;1.63;;
76256;SDS011;65074;50.436;8.672;2022-11-23T11:50:45;4.78;;;1.30;;
76256;SDS011;65074;50.436;8.672;2022-11-23T11:53:25;3.78;;;1.40;;
76256;SDS011;65074;50.436;8.672;2022-11-23T11:58:29;4.22;;;1.27;;
76256;SDS011;65074;50.436;8.672;2022-11-23T12:04:11;1.85;;;1.50;;
76256;SDS011;65074;50.436;8.672;2022-11-23T12:06:49;5.65;;;2.03;;
76256;SDS011;65074;50.436;8.672;2022-11-23T12:09:25;2.88;;;1.20;;
76256;SDS011;65074;50.436;8.672;2022-11-23T12:11:55;3.63;;;1.38;;
76256;SDS011;65074;50.436;8.672;2022-11-23T12:14:22;5.28;;;1.20;;
76256;SDS011;65074;50.436;8.672;2022-11-23T12:19:52;7.43;;;1.50;;
76256;SDS011;65074;50.436;8.672;2022-11-23T12:25:31;3.20;;;1.55;;
76256;SDS011;65074;50.436;8.672;2022-11-23T12:41:51;6.78;;;1.73;;
76256;SDS011;65074;50.436;8.672;2022-11-23T12:44:37;6.47;;;2.70;;
76256;SDS011;65074;50.436;8.672;2022-11-23T12:47:44;3.25;;;1.35;;
76256;SDS011;65074;50.436;8.672;2022-11-23T12:53:28;3.08;;;1.00;;
76256;SDS011;65074;50.436;8.672;2022-11-23T12:56:14;4.03;;;1.48;;
76256;SDS011;65074;50.436;8.672;2022-11-23T12:59:00;4.07;;;1.30;;
76256;SDS011;65074;50.436;8.672;2022-11-23T13:01:28;3.42;;;1.25;;
76256;SDS011;65074;50.436;8.672;2022-11-23T13:23:10;3.70;;;0.93;;
76256;SDS011;65074;50.436;8.672;2022-11-23T13:25:36;7.05;;;1.10;;
76256;SDS011;65074;50.436;8.672;2022-11-23T13:28:03;1.60;;;0.80;;
76256;SDS011;65074;50.436;8.672;2022-11-23T13:30:38;4.05;;;1.30;;
76256;SDS011;65074;50.436;8.672;2022-11-23T13:33:28;4.05;;;1.13;;
76256;SDS011;65074;50.436;8.672;2022-11-23T13:36:00;5.22;;;1.67;;
76256;SDS011;65074;50.436;8.672;2022-11-23T13:38:26;1.52;;;0.68;;
76256;SDS011;65074;50.436;8.672;2022-11-23T13:40:59;2.17;;;0.90;;
76256;SDS011;65074;50.436;8.672;2022-11-23T13:43:31;4.68;;;1.77;;
76256;SDS011;65074;50.436;8.672;2022-11-23T13:48:48;2.55;;;0.80;;
76256;SDS011;65074;50.436;8.672;2022-11-23T13:51:22;4.90;;;1.20;;
76256;SDS011;65074;50.436;8.672;2022-11-23T13:53:50;2.97;;;0.98;;
76256;SDS011;65074;50.436;8.672;2022-11-23T13:56:31;6.65;;;1.48;;
76256;SDS011;65074;50.436;8.672;2022-11-23T14:04:34;5.65;;;1.10;;
76256;SDS011;65074;50.436;8.672;2022-11-23T14:09:43;6.68;;;1.65;;
76256;SDS011;65074;50.436;8.672;2022-11-23T14:12:15;2.15;;;0.90;;
76256;SDS011;65074;50.436;8.672;2022-11-23T14:15:08;1.08;;;0.63;;
76256;SDS011;65074;50.436;8.672;2022-11-23T14:20:51;2.90;;;1.10;;
76256;SDS011;65074;50.436;8.672;2022-11-23T14:29:26;2.95;;;0.73;;
76256;SDS011;65074;50.436;8.672;2022-11-23T14:34:53;3.33;;;1.00;;
76256;SDS011;65074;50.436;8.672;2022-11-23T14:40:26;3.15;;;1.10;;
76256;SDS011;65074;50.436;8.672;2022-11-23T14:42:53;3.67;;;1.00;;
76256;SDS011;65074;50.436;8.672;2022-11-23T14:45:21;3.13;;;0.90;;
76256;SDS011;65074;50.436;8.672;2022-11-23T14:47:48;2.38;;;0.90;;
76256;SDS011;65074;50.436;8.672;2022-11-23T14:52:50;1.40;;;0.70;;
76256;SDS011;65074;50.436;8.672;2022-11-23T14:55:27;5.32;;;1.00;;
76256;SDS011;65074;50.436;8.672;2022-11-23T14:57:56;4.63;;;0.90;;
76256;SDS011;65074;50.436;8.672;2022-11-23T15:00:28;4.90;;;1.30;;
76256;SDS011;65074;50.436;8.672;2022-11-23T15:02:57;4.45;;;1.30;;
76256;SDS011;65074;50.436;8.672;2022-11-23T15:05:30;1.77;;;1.02;;
76256;SDS011;65074;50.436;8.672;2022-11-23T15:07:59;6.10;;;1.45;;
76256;SDS011;65074;50.436;8.672;2022-11-23T15:10:35;4.35;;;1.50;;
76256;SDS011;65074;50.436;8.672;2022-11-23T15:15:44;2.00;;;0.90;;
76256;SDS011;65074;50.436;8.672;2022-11-23T15:18:09;2.75;;;0.85;;
76256;SDS011;65074;50.436;8.672;2022-11-23T15:20:40;2.50;;;0.90;;
76256;SDS011;65074;50.436;8.672;2022-11-23T15:23:20;3.30;;;2.03;;
76256;SDS011;65074;50.436;8.672;2022-11-23T15:25:54;4.85;;;1.77;;
76256;SDS011;65074;50.436;8.672;2022-11-23T15:28:27;4.32;;;1.60;;
76256;SDS011;65074;50.436;8.672;2022-11-23T15:30:54;4.85;;;1.85;;
76256;SDS011;65074;50.436;8.672;2022-11-23T15:33:20;6.40;;;2.22;;
76256;SDS011;65074;50.436;8.672;2022-11-23T15:35:47;5.75;;;2.47;;
76256;SDS011;65074;50.436;8.672;2022-11-23T15:38:14;8.95;;;2.90;;
76256;SDS011;65074;50.436;8.672;2022-11-23T15:40:42;6.72;;;2.30;;
76256;SDS011;65074;50.436;8.672;2022-11-23T15:43:13;5.72;;;1.90;;
76256;SDS011;65074;50.436;8.672;2022-11-23T15:48:08;5.70;;;1.83;;
76256;SDS011;65074;50.436;8.672;2022-11-23T15:51:17;5.00;;;1.98;;
76256;SDS011;65074;50.436;8.672;2022-11-23T15:53:31;2.20;;;1.27;;
76256;SDS011;65074;50.436;8.672;2022-11-23T15:56:20;6.05;;;1.92;;
76256;SDS011;65074;50.436;8.672;2022-11-23T15:58:49;6.97;;;1.35;;
76256;SDS011;65074;50.436;8.672;2022-11-23T16:01:17;2.75;;;1.00;;
76256;SDS011;65074;50.436;8.672;2022-11-23T16:06:17;3.70;;;1.33;;
76256;SDS011;65074;50.436;8.672;2022-11-23T16:09:00;6.78;;;1.42;;
76256;SDS011;65074;50.436;8.672;2022-11-23T16:11:35;5.65;;;1.13;;
76256;SDS011;65074;50.436;8.672;2022-11-23T16:16:38;5.50;;;2.17;;
76256;SDS011;65074;50.436;8.672;2022-11-23T16:19:04;7.82;;;2.70;;
76256;SDS011;65074;50.436;8.672;2022-11-23T16:21:46;4.32;;;1.42;;
76256;SDS011;65074;50.436;8.672;2022-11-23T16:24:15;3.92;;;1.55;;
76256;SDS011;65074;50.436;8.672;2022-11-23T16:26:44;4.75;;;1.75;;
76256;SDS011;65074;50.436;8.672;2022-11-23T16:29:18;5.97;;;2.85;;
76256;SDS011;65074;50.436;8.672;2022-11-23T16:31:58;6.22;;;2.00;;
76256;SDS011;65074;50.436;8.672;2022-11-23T16:34:24;7.05;;;2.25;;
76256;SDS011;65074;50.436;8.672;2022-11-23T16:36:53;5.32;;;2.13;;
76256;SDS011;65074;50.436;8.672;2022-11-23T16:39:23;8.13;;;2.10;;
76256;SDS011;65074;50.436;8.672;2022-11-23T16:41:53;5.85;;;2.22;;
76256;SDS011;65074;50.436;8.672;2022-11-23T16:44:18;6.63;;;2.75;;
76256;SDS011;65074;50.436;8.672;2022-11-23T16:46:44;5.22;;;2.30;;
76256;SDS011;65074;50.436;8.672;2022-11-23T16:49:20;19.83;;;7.80;;
76256;SDS011;65074;50.436;8.672;2022-11-23T16:51:48;17.27;;;7.53;;
76256;SDS011;65074;50.436;8.672;2022-11-23T16:54:17;16.55;;;7.13;;
76256;SDS011;65074;50.436;8.672;2022-11-23T16:56:43;24.17;;;8.25;;
76256;SDS011;65074;50.436;8.672;2022-11-23T16:59:16;14.30;;;6.85;;
76256;SDS011;65074;50.436;8.672;2022-11-23T17:01:47;14.80;;;7.68;;
76256;SDS011;65074;50.436;8.672;2022-11-23T17:04:14;17.85;;;7.72;;
76256;SDS011;65074;50.436;8.672;2022-11-23T17:06:41;11.82;;;6.10;;